Latest Weather Observations for Longerenong

IDV60801

Issued at 6:31 pm EST Monday 3 August 2015 (issued every 30 minutes, with the page automatically refreshed every 10 minutes)

About weather observations | Map of weather stations | Latest weather observations for VIC | Other Formats
Station Details ID: 079028 Name: LONGERENONG Lat: -36.67 Lon: 142.30 Height: 133.0 m
Data from the previous 72 hours. | See also: Recent months at Longerenong
Date/Time
EST
Temp
°C
App
Temp
°C
Dew
Point
Rel
Hum
%
Delta-T
°C
Wind Press
QNH
hPa
Press
MSL
hPa
Rain
since 9 am
mm
Dir
 
Spd
km/h
Gust
km/h
Spd
kts
Gust
kts
03/06:30pm 6.1 3.2 1.6 73 1.8 SW 6 9 3 5 - - 0.2
03/06:00pm 6.8 2.9 1.3 68 2.2 SW 11 15 6 8 - - 0.2
03/05:30pm 8.3 4.1 1.9 64 2.7 SW 13 17 7 9 - - 0.2
03/05:00pm 8.3 3.7 1.5 62 2.8 SSW 15 22 8 12 - - 0.2
03/04:30pm 8.8 2.6 2.2 63 2.8 SSW 24 32 13 17 - - 0.2
03/04:00pm 9.9 5.0 2.3 59 3.2 SW 17 22 9 12 - - 0.2
03/03:30pm 9.8 4.9 1.9 58 3.3 SW 17 26 9 14 - - 0.2
03/03:00pm 9.2 2.2 2.1 61 3.0 SW 28 39 15 21 - - 0.2
03/02:30pm 10.1 5.2 4.0 66 2.7 SSW 19 26 10 14 - - 0.2
03/02:00pm 8.7 2.1 4.3 74 1.9 SSW 28 37 15 20 - - 0.2
03/01:30pm 8.0 2.7 4.9 81 1.4 S 22 43 12 23 - - 0.2
03/01:00pm 10.0 4.7 3.1 62 3.0 SSW 20 30 11 16 - - 0.2
03/12:30pm 10.0 4.4 3.5 64 2.9 SSW 22 28 12 15 - - 0.2
03/12:00pm 7.3 0.3 4.3 81 1.3 SSW 30 46 16 25 - - 0.2
03/11:30am 9.1 3.1 3.3 67 2.5 SW 24 35 13 19 - - 0.0
03/11:00am 9.6 3.9 4.8 72 2.2 SW 24 33 13 18 - - 0.0
03/10:30am 9.0 3.1 3.8 70 2.3 SW 24 37 13 20 - - 0.0
03/10:00am 8.8 2.7 4.6 75 1.9 SW 26 37 14 20 - - 0.0
03/09:30am 8.3 2.9 4.7 78 1.6 SW 22 30 12 16 - - 0.0
03/09:00am 7.8 2.7 4.2 78 1.6 WSW 20 30 11 16 - - 0.6
03/08:30am 7.4 1.6 4.4 81 1.3 SW 24 32 13 17 - - 0.6
03/08:00am 7.5 1.3 4.5 81 1.3 WSW 26 37 14 20 - - 0.6
03/07:30am 7.3 0.4 4.8 84 1.1 WSW 30 43 16 23 - - 0.6
03/07:00am 6.7 2.4 5.3 91 0.6 W 17 24 9 13 - - 0.6
03/06:30am 6.9 2.3 5.5 91 0.6 W 19 26 10 14 - - 0.6
03/06:00am 7.4 2.9 6.2 92 0.5 W 19 24 10 13 - - 0.6
03/05:30am 7.5 2.8 6.1 91 0.6 W 20 28 11 15 - - 0.6
03/05:00am 7.6 2.9 6.1 90 0.7 W 20 28 11 15 - - 0.6
03/04:30am 7.4 2.9 6.2 92 0.5 W 19 22 10 12 - - 0.6
03/04:00am 7.6 2.2 6.2 91 0.6 W 24 32 13 17 - - 0.6
03/03:30am 7.5 2.4 6.1 91 0.6 WNW 22 30 12 16 - - 0.6
03/03:00am 7.5 2.0 6.1 91 0.6 WNW 24 32 13 17 - - 0.6
03/02:30am 7.7 2.7 6.3 91 0.6 WNW 22 33 12 18 - - 0.6
03/02:00am 7.6 2.5 5.9 89 0.8 W 22 28 12 15 - - 0.6
03/01:30am 7.7 2.3 6.2 90 0.7 W 24 32 13 17 - - 0.6
03/01:00am 7.5 3.4 6.4 93 0.5 W 17 24 9 13 - - 0.6
03/12:30am 7.9 3.2 6.2 89 0.8 W 20 26 11 14 - - 0.6
03/12:00am 7.5 3.0 6.1 91 0.6 WNW 19 28 10 15 - - 0.6
 
Date/Time
EST
Temp
°C
App
Temp
°C
Dew
Point
Rel
Hum
%
Delta-T
°C
Wind Press
QNH
hPa
Press
MSL
hPa
Rain
since 9 am
mm
Dir
 
Spd
km/h
Gust
km/h
Spd
kts
Gust
kts
02/11:30pm 7.8 3.2 6.3 90 0.7 WNW 20 28 11 15 - - 0.6
02/11:00pm 7.8 3.2 6.7 93 0.5 WNW 20 28 11 15 - - 0.6
02/10:30pm 7.8 3.4 6.7 93 0.5 WNW 19 26 10 14 - - 0.4
02/10:00pm 7.8 3.2 6.7 93 0.5 WNW 20 28 11 15 - - 0.4
02/09:30pm 8.1 3.6 6.9 92 0.6 WNW 20 26 11 14 - - 0.4
02/09:00pm 8.4 2.7 6.9 90 0.7 WNW 26 35 14 19 - - 0.4
02/08:30pm 8.5 3.9 6.5 87 0.9 WNW 20 28 11 15 - - 0.4
02/08:00pm 8.6 2.8 6.4 86 1.0 W 26 37 14 20 - - 0.4
02/07:30pm 9.2 4.2 6.5 83 1.3 W 22 32 12 17 - - 0.4
02/07:00pm 9.1 4.2 6.9 86 1.0 W 22 33 12 18 - - 0.4
02/06:30pm 9.3 4.5 7.4 88 0.9 WNW 22 30 12 16 - - 0.4
02/06:00pm 9.1 3.9 7.1 87 0.9 W 24 33 13 18 - - 0.4
02/05:30pm 9.6 3.4 8.0 90 0.8 W 30 37 16 20 - - 0.4
02/05:00pm 10.8 3.7 8.0 83 1.4 W 35 52 19 28 - - 0.0
02/04:35pm 12.9 5.9 6.0 63 3.3 WNW 32 50 17 27 - - 0.0
02/04:30pm 12.9 6.0 6.3 64 3.2 WNW 32 43 17 23 - - 0.0
02/04:00pm 13.4 5.8 5.8 60 3.6 W 35 50 19 27 - - 0.0
02/03:30pm 13.7 5.3 5.8 59 3.8 W 39 54 21 29 - - 0.0
02/03:00pm 13.7 4.8 5.3 57 4.0 W 41 57 22 31 - - 0.0
02/02:30pm 13.5 5.1 5.7 59 3.7 W 39 52 21 28 - - 0.0
02/02:00pm 12.4 5.4 6.9 69 2.7 W 33 46 18 25 - - 0.0
02/01:30pm 12.6 5.1 6.2 65 3.0 W 35 48 19 26 - - 0.0
02/01:23pm 12.7 4.9 6.5 66 3.0 W 37 57 20 31 - - 0.0
02/01:00pm 13.1 5.2 6.0 62 3.4 WNW 37 48 20 26 - - 0.0
02/12:30pm 12.6 5.1 6.2 65 3.0 WNW 35 44 19 24 - - 0.0
02/12:00pm 11.7 3.7 5.6 66 2.8 W 37 50 20 27 - - 0.0
02/11:33am 11.3 4.0 5.4 67 2.7 W 33 54 18 29 - - 0.0
02/11:30am 11.6 4.7 6.3 70 2.5 W 32 46 17 25 - - 0.0
02/11:00am 10.7 4.1 5.9 72 2.2 W 30 39 16 21 - - 0.0
02/10:30am 10.1 4.4 6.6 79 1.7 WNW 26 41 14 22 - - 0.0
02/10:00am 8.6 3.1 6.1 84 1.2 WNW 24 32 13 17 - - 0.0
02/09:30am 7.4 1.8 5.5 88 0.9 WNW 24 33 13 18 - - 0.0
02/09:00am 6.5 1.8 5.1 91 0.6 WNW 19 26 10 14 - - 0.0
02/08:30am 5.5 1.4 4.6 94 0.4 NW 15 20 8 11 - - 0.0
02/08:00am 4.5 0.3 3.8 95 0.3 NW 15 19 8 10 - - 0.0
02/07:30am 4.2 -0.1 3.3 94 0.4 WNW 15 19 8 10 - - 0.0
02/07:00am 4.5 0.6 3.6 94 0.4 WNW 13 17 7 9 - - 0.0
02/06:30am 4.5 1.0 3.6 94 0.4 NW 11 17 6 9 - - 0.0
02/06:00am 4.7 1.3 3.8 94 0.4 WNW 11 15 6 8 - - 0.0
02/05:30am 5.3 1.9 4.1 92 0.5 WNW 11 17 6 9 - - 0.0
02/05:00am 6.0 2.3 4.5 90 0.6 WNW 13 19 7 10 - - 0.0
02/04:30am 5.7 2.0 4.3 91 0.6 NW 13 17 7 9 - - 0.0
02/04:00am 5.7 2.4 4.3 91 0.6 NW 11 15 6 8 - - 0.0
02/03:30am 5.8 2.1 4.4 91 0.6 WNW 13 15 7 8 - - 0.0
02/03:00am 6.0 2.7 4.5 90 0.6 NW 11 13 6 7 - - 0.0
02/02:30am 5.7 2.7 4.2 90 0.6 NW 9 11 5 6 - - 0.0
02/02:00am 5.7 3.1 4.0 89 0.7 NW 7 11 4 6 - - 0.0
02/01:30am 5.8 3.1 3.6 86 0.9 NW 7 7 4 4 - - 0.0
02/01:00am 6.1 2.9 3.3 82 1.2 NW 9 11 5 6 - - 0.0
02/12:30am 6.1 3.5 3.4 83 1.1 NW 6 7 3 4 - - 0.0
02/12:00am 6.3 3.8 3.5 82 1.2 NNW 6 6 3 3 - - 0.0
 
Date/Time
EST
Temp
°C
App
Temp
°C
Dew
Point
Rel
Hum
%
Delta-T
°C
Wind Press
QNH
hPa
Press
MSL
hPa
Rain
since 9 am
mm
Dir
 
Spd
km/h
Gust
km/h
Spd
kts
Gust
kts
01/11:30pm 6.7 3.7 3.9 82 1.2 NNW 9 13 5 7 - - 0.0
01/11:00pm 6.4 4.4 4.4 87 0.9 WNW 4 6 2 3 - - 0.0
01/10:30pm 6.3 3.7 4.0 85 1.0 WNW 7 11 4 6 - - 0.0
01/10:00pm 6.2 3.7 4.7 90 0.7 NNW 7 9 4 5 - - 0.0
01/09:30pm 6.4 5.2 4.4 87 0.9 CALM 0 2 0 1 - - 0.0
01/09:00pm 6.4 3.9 4.7 89 0.7 NNW 7 9 4 5 - - 0.0
01/08:30pm 6.4 3.9 4.6 88 0.8 WNW 7 9 4 5 - - 0.0
01/08:00pm 6.6 4.0 4.1 84 1.1 WNW 7 11 4 6 - - 0.0
01/07:30pm 6.8 4.7 4.1 83 1.2 WNW 4 4 2 2 - - 0.0
01/07:00pm 6.7 4.2 4.0 83 1.2 WNW 6 7 3 4 - - 0.0
01/06:30pm 7.3 4.9 4.1 80 1.4 SSW 6 9 3 5 - - 0.0
01/06:00pm 7.8 5.2 4.0 77 1.7 SW 7 9 4 5 - - 0.0
01/05:30pm 8.2 5.3 4.8 79 1.5 S 9 11 5 6 - - 0.0
01/05:00pm 8.9 6.4 3.9 71 2.2 SW 6 6 3 3 - - 0.0
01/04:30pm 9.1 6.3 3.1 66 2.6 W 7 11 4 6 - - 0.0
01/04:00pm 9.5 6.8 3.5 66 2.6 WSW 7 11 4 6 - - 0.0
01/03:30pm 9.6 6.3 2.7 62 3.0 WSW 9 13 5 7 - - 0.0
01/03:00pm 9.7 6.1 3.2 64 2.8 SW 11 17 6 9 - - 0.0
01/02:30pm 9.6 5.4 3.8 67 2.6 SW 15 20 8 11 - - 0.0
01/02:00pm 9.5 5.4 4.1 69 2.4 SW 15 20 8 11 - - 0.0
01/01:30pm 9.7 6.1 5.1 73 2.1 SW 13 17 7 9 - - 0.0
01/01:00pm 9.4 5.8 4.8 73 2.1 SSW 13 17 7 9 - - 0.0
01/12:30pm 9.9 6.6 6.4 79 1.6 SSW 13 17 7 9 - - 0.0
01/12:00pm 9.7 5.9 5.9 77 1.8 SSW 15 20 8 11 - - 0.0
01/11:30am 9.3 4.8 6.0 80 1.5 SSW 19 22 10 12 - - 0.0
01/11:00am 9.1 4.6 6.2 82 1.3 SSW 19 24 10 13 - - 0.0
01/10:30am 9.1 5.0 6.4 83 1.3 SSW 17 24 9 13 - - 0.0
01/10:00am 9.3 5.7 6.7 84 1.2 SW 15 22 8 12 - - 0.0
01/09:30am 9.0 6.3 7.3 89 0.8 SW 11 15 6 8 - - 0.0
01/09:00am 8.9 5.9 7.5 91 0.7 SSW 13 19 7 10 - - 1.6
01/08:30am 9.0 4.8 7.5 90 0.7 SW 19 28 10 15 - - 1.6
01/08:00am 9.2 5.1 8.0 92 0.6 SSW 19 30 10 16 - - 1.6
01/07:30am 9.6 4.2 8.0 90 0.8 SW 26 37 14 20 - - 1.6
01/07:00am 10.8 7.1 10.0 95 0.4 WSW 20 30 11 16 - - 1.6
01/06:30am 10.9 7.5 10.4 97 0.3 NW 19 26 10 14 - - 1.0
01/06:00am 10.7 7.2 10.1 96 0.3 NW 19 26 10 14 - - 0.6
01/05:30am 10.7 6.8 9.3 91 0.7 NW 20 26 11 14 - - 0.0
01/05:00am 10.1 6.0 7.9 86 1.1 NNW 19 24 10 13 - - 0.0
01/04:30am 10.0 5.1 6.9 81 1.5 NNW 22 30 12 16 - - 0.0
01/04:00am 9.9 5.4 6.3 78 1.7 NNW 19 30 10 16 - - 0.0
01/03:30am 10.0 5.5 6.2 77 1.8 N 19 24 10 13 - - 0.0
01/03:00am 9.9 5.2 6.1 77 1.8 N 20 28 11 15 - - 0.0
01/02:30am 9.2 5.0 5.6 78 1.6 N 17 24 9 13 - - 0.0
01/02:00am 9.0 4.7 5.2 77 1.7 N 17 22 9 12 - - 0.0
01/01:30am 8.7 4.7 4.9 77 1.7 N 15 20 8 11 - - 0.0
01/01:00am 8.3 4.2 4.5 77 1.7 N 15 22 8 12 - - 0.0
01/12:30am 8.1 4.0 4.3 77 1.7 NNE 15 20 8 11 - - 0.0
01/12:00am 8.2 4.5 4.2 76 1.8 NNE 13 19 7 10 - - 0.0
 
Date/Time
EST
Temp
°C
App
Temp
°C
Dew
Point
Rel
Hum
%
Delta-T
°C
Wind Press
QNH
hPa
Press
MSL
hPa
Rain
since 9 am
mm
Dir
 
Spd
km/h
Gust
km/h
Spd
kts
Gust
kts
31/11:30pm 8.0 4.6 3.8 75 1.8 NNE 11 17 6 9 - - 0.0
31/11:00pm 8.1 5.4 3.6 73 1.9 NNE 7 13 4 7 - - 0.0
31/10:30pm 8.2 5.6 3.3 71 2.1 N 6 9 3 5 - - 0.0
31/10:00pm 8.4 5.2 3.1 69 2.3 NNE 9 15 5 8 - - 0.0
31/09:30pm 8.2 4.2 2.9 69 2.3 NNE 13 17 7 9 - - 0.0
31/09:00pm 8.1 4.5 2.8 69 2.2 NNE 11 19 6 10 - - 0.0
31/08:30pm 8.2 4.2 3.1 70 2.2 NNE 13 19 7 10 - - 0.0
31/08:00pm 8.2 3.9 3.1 70 2.2 NNE 15 22 8 12 - - 0.0
31/07:30pm 8.0 3.6 2.9 70 2.2 NNE 15 20 8 11 - - 0.0
31/07:00pm 7.9 4.3 2.8 70 2.2 N 11 19 6 10 - - 0.0

Other Formats:

Comma delimited format used in spreadsheet applications
http://www.bom.gov.au/fwo/IDV60801/IDV60801.95835.axf

JavaScript Object Notation format (JSON) in row-major order
http://www.bom.gov.au/fwo/IDV60801/IDV60801.95835.json